Alaska Railroad Corporation
Mile 43 Hourly Weather Roundup
MILE_43 6/23/2017
CLICK HERE TO SEE GRAPH!!!

        DATE  TIME  Temp   Rel  Wind  Wind  Wind  Wind  WindPeakDi
                      F Humid   Spd   Dir  Gust   Spd  Gust      
                     AVG     %   RMY   RMY   RMY    PT    PT      

   6/23/2017 15:00    44    95     2   317     7     1     8      
   6/23/2017 14:00    44    95     3     6     7     3     7      
   6/23/2017 13:00    43    95     3     9     7     2     7      
   6/23/2017 12:00    42    96     3    49     7     3     7      
   6/23/2017 11:00    42    97     0   195     3     0     3      
   6/23/2017 10:00    40    97     3   197     5     3     6      
   6/23/2017 09:00    39    97     4   184     6     4     7      
   6/23/2017 08:00    39    97     4   204     6     4     7      
   6/23/2017 07:00    39    97     2   306     5     1     4      
   6/23/2017 06:00    39    97     2    14     3     0     3      
   6/23/2017 05:00    39    97     2    20     3     0     1      
   6/23/2017 04:00    39    97     4    13     5     3     6      
   6/23/2017 03:00    39    97     2    19     5     2     6      
   6/23/2017 02:00    39    97     1   208     5     1     6      
   6/23/2017 01:00    39    97     5   185     7     5     8      
   6/22/2017 24:00    39    97     6   181     8     7     8      
   6/22/2017 23:00    39    97     6   186     8     7    10      
   6/22/2017 22:00    40    97     7   180     9     8    11      
   6/22/2017 21:00    40    97     7   176    10     9    13      
   6/22/2017 20:00    41    97     5   159    10     6    13      
   6/22/2017 19:00    42    97     4   196    10     5    13      
   6/22/2017 18:00    41    97     6   171    10     8    13      
   6/22/2017 17:00    42    96     4   186    11     5    14      
   6/22/2017 16:00    42    96     5   199    11     6    13      


CLICK HERE TO SEE GRAPH!!!